West Valley City, UT

11:33 AM MST on December 25, 2014 (GMT -0700)
West Jordan-Angel Landing | Change Station
CLOSE
Current Station
Personal Weather Station
Location: West Jordan, UT
Elevation: 4455 ft
Nearby Weather Stations

Elev 4455 ft 40.61 °N, 111.95 °W | Updated 4 minutes ago

Snow
Snow
31.5 °F
Feels Like 26 °F
N
5.3
Wind Variable Wind from SSW

Today
High -- | Low -- °F
--% Chance of Precip.
Yesterday
High -- | Low -- °F
Precip. -- in
7:49 AM 5:06 PM
Waxing Crescent, 18% visible
Pressure 29.66 in
Visibility 3.0 miles
Clouds Few 2000 ft
Overcast 4300 ft
Windchill 26 °F
Dew Point 24 °F
Humidity 75%
Rainfall 0.05 in
Snow Depth Not available.
UV 1 out of 12
Pollen .10 out of 12
Air Quality Not available.
Flu Activity Not available.
METAR KSLC 251753Z 27010KT 3SM -SN FEW020 OVC043 M02/M04 A2967 RMK AO2 SFC VIS 5 SLP043 P0000 60001 T10171044 10006 21022 53014

More Conditions Fewer Conditions

Pressure 29.66 in
Visibility 3.0 miles
Clouds Few 2000 ft
Overcast 4300 ft
Windchill 26 °F
Dew Point 24 °F
Humidity 75%
Rainfall 0.05 in
Snow Depth Not available.
UV 1 out of 12
Pollen .10 out of 12
Air Quality Not available.
Flu Activity Not available.
METAR KSLC 251753Z 27010KT 3SM -SN FEW020 OVC043 M02/M04 A2967 RMK AO2 SFC VIS 5 SLP043 P0000 60001 T10171044 10006 21022 53014

More Conditions Fewer Conditions

10-Day Weather Forecast

Almanac

Astronomy

Dec. 25, 2014 Rise Set
Actual Time
Civil Twilight
Nautical Twilight
Astronomical Twilight
Moon
Length of Visible Light
Length of Day
Tomorrow will be .
, % of the Moon is Illuminated

Today's Extremes

State Highs State Lows

Community

WunderPhotos

Upload Photos

1,780,357 photos uploaded!

WunderBlogs® & News

Nearby

Air Quality

  Air Quality AQ Index Pollutant
Not available.

Snow Depth

Station Depth Elevation

Earthquake Activity

City Distance Mag. Time & Date
Minimum magnitude displayed is 2.5.

Coastal Water Temperatures

Place Temperature

Nearby Weather Stations